| time (UTC) | temp F | wind direction | speed knots | gust knots | rain 1hr in | rain 24hr in | rain mn in | humidity % | barometer mb |
| 20260906093016 | 72 | 0.0 | 0.0 | 0.00 | 0.00 | 0.00 | 92 | 1014.8 | |
| 20260906091816 | 73 | 0.0 | 0.0 | 0.00 | 0.00 | 0.00 | 92 | 1014.7 | |
| 20260906090616 | 73 | 200 | 0.0 | 0.9 | 0.00 | 0.00 | 0.00 | 91 | 1014.6 |
| 20260906085436 | 73 | 0.0 | 0.0 | 0.00 | 0.00 | 0.00 | 91 | 1014.3 | |
| 20260906084216 | 73 | 200 | 0.0 | 0.9 | 0.00 | 0.00 | 0.00 | 91 | 1014.2 |
| 20260906083016 | 73 | 0.0 | 0.0 | 0.00 | 0.00 | 0.00 | 91 | 1014.1 | |
| 20260906081816 | 73 | 0.0 | 0.0 | 0.00 | 0.00 | 0.00 | 91 | 1014.1 | |
| 20260906080615 | 73 | 0.0 | 0.0 | 0.00 | 0.00 | 0.00 | 90 | 1014.2 | |
| 20260906075416 | 73 | 0.0 | 0.9 | 0.00 | 0.00 | 0.00 | 90 | 1014.0 | |
| 20260906074216 | 73 | 238 | 0.0 | 0.9 | 0.00 | 0.00 | 0.00 | 90 | 1014.1 |
| 20260906073015 | 74 | 0.0 | 0.0 | 0.00 | 0.00 | 0.00 | 90 | 1014.2 | |
| 20260906071816 | 74 | 0.0 | 0.9 | 0.00 | 0.00 | 0.00 | 89 | 1014.3 | |
| 20260906070635 | 74 | 304 | 0.0 | 0.9 | 0.00 | 0.00 | 0.00 | 90 | 1014.3 |
| 20260906065416 | 74 | 0.0 | 0.0 | 0.00 | 0.00 | 0.00 | 90 | 1014.2 | |
| 20260906064215 | 74 | 304 | 0.0 | 0.9 | 0.00 | 0.00 | 0.00 | 90 | 1014.3 |
| 20260906063016 | 75 | 304 | 0.0 | 0.9 | 0.00 | 0.00 | 0.00 | 89 | 1014.4 |
| 20260906061815 | 75 | 299 | 0.0 | 1.7 | 0.00 | 0.00 | 0.00 | 89 | 1014.6 |
| 20260906060615 | 75 | 339 | 0.9 | 2.6 | 0.00 | 0.00 | 0.00 | 89 | 1014.8 |
| 20260906055415 | 75 | 303 | 1.7 | 2.6 | 0.00 | 0.00 | 0.00 | 89 | 1014.9 |
| 20260906054216 | 76 | 300 | 0.0 | 0.9 | 0.00 | 0.00 | 0.00 | 88 | 1015.0 |
| 20260906053015 | 76 | 300 | 0.0 | 1.7 | 0.00 | 0.00 | 0.00 | 88 | 1014.9 |
| 20260906051815 | 76 | 168 | 0.0 | 0.9 | 0.00 | 0.00 | 0.00 | 86 | 1014.9 |
| 20260906050616 | 76 | 0.0 | 0.9 | 0.00 | 0.00 | 0.00 | 85 | 1014.9 | |
| 20260906045415 | 77 | 0.0 | 0.9 | 0.00 | 0.00 | 0.00 | 84 | 1014.9 | |
| 20260906044215 | 77 | 0.0 | 0.0 | 0.00 | 0.00 | 0.00 | 84 | 1015.0 | |
| 20260906043015 | 77 | 168 | 0.0 | 0.9 | 0.00 | 0.00 | 0.00 | 83 | 1015.0 |
| 20260906041816 | 77 | 127 | 0.0 | 0.9 | 0.00 | 0.00 | 0.00 | 82 | 1015.2 |
| 20260906040616 | 77 | 127 | 0.9 | 1.7 | 0.00 | 0.00 | 0.00 | 82 | 1015.2 |
| 20260906035416 | 77 | 0.0 | 0.0 | 0.00 | 0.00 | 0.00 | 82 | 1015.4 | |
| 20260906034215 | 78 | 200 | 0.0 | 0.9 | 0.00 | 0.00 | 0.00 | 82 | 1015.2 |
| 20260906033016 | 78 | 257 | 0.0 | 0.9 | 0.00 | 0.00 | 0.00 | 81 | 1015.4 |
| 20260906031816 | 78 | 303 | 0.0 | 1.7 | 0.00 | 0.00 | 0.00 | 81 | 1015.7 |
| 20260906030635 | 79 | 54 | 0.9 | 1.7 | 0.00 | 0.00 | 0.00 | 80 | 1015.6 |
| 20260906025416 | 79 | 59 | 0.0 | 1.7 | 0.00 | 0.00 | 0.00 | 80 | 1015.5 |
| 20260906024236 | 79 | 58 | 0.9 | 1.7 | 0.00 | 0.00 | 0.00 | 79 | 1015.5 |
| 20260906023015 | 79 | 128 | 0.0 | 0.9 | 0.00 | 0.00 | 0.00 | 78 | 1015.7 |
| 20260906021815 | 79 | 200 | 0.0 | 0.9 | 0.00 | 0.00 | 0.00 | 76 | 1015.9 |
| 20260906020616 | 79 | 200 | 0.0 | 0.9 | 0.00 | 0.00 | 0.00 | 76 | 1015.8 |
| 20260906015416 | 79 | 200 | 0.0 | 0.9 | 0.00 | 0.00 | 0.00 | 75 | 1015.5 |
| 20260906014216 | 79 | 200 | 0.9 | 1.7 | 0.00 | 0.00 | 0.00 | 75 | 1015.1 |
| 20260906013056 | 79 | 200 | 0.0 | 0.9 | 0.00 | 0.00 | 0.00 | 76 | 1015.0 |
| 20260906011815 | 79 | 0.0 | 0.9 | 0.00 | 0.00 | 0.00 | 75 | 1014.7 | |
| 20260906010615 | 80 | 200 | 0.0 | 1.7 | 0.00 | 0.00 | 0.00 | 75 | 1014.4 |
| 20260906005415 | 80 | 302 | 0.0 | 1.7 | 0.00 | 0.00 | 0.00 | 75 | 1014.5 |
| 20260906004216 | 80 | 236 | 0.9 | 0.9 | 0.00 | 0.00 | 0.00 | 74 | 1014.2 |
| 20260906003015 | 81 | 239 | 1.7 | 2.6 | 0.00 | 0.00 | 0.00 | 73 | 1014.2 |
| 20260906001815 | 81 | 52 | 0.9 | 1.7 | 0.00 | 0.00 | 0.00 | 71 | 1014.2 |
| 20260906000615 | 82 | 101 | 1.7 | 4.3 | 0.00 | 0.00 | 0.00 | 69 | 1014.3 |
| 20260905235416 | 83 | 82 | 0.9 | 2.6 | 0.00 | 0.00 | 0.00 | 66 | 1014.4 |
| 20260905234215 | 84 | 336 | 0.9 | 2.6 | 0.00 | 0.00 | 0.00 | 64 | 1014.2 |
| 20260905233015 | 85 | 306 | 0.0 | 0.9 | 0.00 | 0.00 | 0.00 | 63 | 1014.1 |
| 20260905231815 | 85 | 211 | 0.0 | 1.7 | 0.00 | 0.00 | 0.00 | 61 | 1014.1 |
| 20260905230615 | 86 | 320 | 1.7 | 3.5 | 0.00 | 0.00 | 0.00 | 59 | 1013.8 |
| 20260905225415 | 86 | 9 | 0.9 | 1.7 | 0.00 | 0.00 | 0.00 | 58 | 1013.7 |
| 20260905224215 | 87 | 86 | 0.9 | 2.6 | 0.00 | 0.00 | 0.00 | 58 | 1013.7 |
| 20260905223015 | 88 | 75 | 1.7 | 3.5 | 0.00 | 0.00 | 0.00 | 55 | 1014.0 |
| 20260905221815 | 90 | 43 | 1.7 | 3.5 | 0.00 | 0.00 | 0.00 | 52 | 1013.7 |
| 20260905220615 | 93 | 153 | 2.6 | 8.7 | 0.00 | 0.00 | 0.00 | 52 | 1013.8 |
| 20260905215415 | 100 | 305 | 3.5 | 6.1 | 0.00 | 0.00 | 0.00 | 42 | 1013.4 |
| 20260905214215 | 100 | 215 | 0.9 | 4.3 | 0.00 | 0.00 | 0.00 | 43 | 1013.1 |
| 20260905213035 | 101 | 265 | 1.7 | 5.2 | 0.00 | 0.00 | 0.00 | 42 | 1013.1 |
| 20260905211815 | 101 | 278 | 2.6 | 7.8 | 0.00 | 0.00 | 0.00 | 41 | 1013.1 |
| 20260905210615 | 100 | 302 | 0.9 | 3.5 | 0.00 | 0.00 | 0.00 | 42 | 1013.2 |
| 20260905205415 | 99 | 32 | 1.7 | 3.5 | 0.00 | 0.00 | 0.00 | 43 | 1013.4 |
| 20260905204215 | 100 | 318 | 2.6 | 5.2 | 0.00 | 0.00 | 0.00 | 43 | 1013.4 |
| 20260905203015 | 100 | 314 | 1.7 | 4.3 | 0.00 | 0.00 | 0.00 | 43 | 1013.2 |
| 20260905201815 | 99 | 294 | 2.6 | 6.1 | 0.00 | 0.00 | 0.00 | 42 | 1013.4 |
| 20260905200617 | 100 | 62 | 1.7 | 3.5 | 0.00 | 0.00 | 0.00 | 44 | 1013.5 |
| 20260905195417 | 100 | 52 | 1.7 | 3.5 | 0.00 | 0.00 | 0.00 | 43 | 1013.7 |
| 20260905194217 | 100 | 59 | 0.9 | 1.7 | 0.00 | 0.00 | 0.00 | 43 | 1013.7 |
| 20260905193057 | 99 | 253 | 2.6 | 5.2 | 0.00 | 0.00 | 0.00 | 44 | 1013.9 |
| 20260905191817 | 99 | 207 | 2.6 | 4.3 | 0.00 | 0.00 | 0.00 | 44 | 1014.0 |
| 20260905190657 | 99 | 138 | 0.9 | 3.5 | 0.00 | 0.00 | 0.00 | 45 | 1014.2 |
| 20260905185437 | 98 | 21 | 1.7 | 4.3 | 0.00 | 0.00 | 0.00 | 45 | 1014.4 |
| 20260905184217 | 98 | 185 | 1.7 | 4.3 | 0.00 | 0.00 | 0.00 | 44 | 1014.6 |
| 20260905183017 | 98 | 113 | 1.7 | 7.0 | 0.00 | 0.00 | 0.00 | 45 | 1014.8 |
| 20260905181837 | 98 | 118 | 0.9 | 2.6 | 0.00 | 0.00 | 0.00 | 46 | 1015.1 |
| 20260905180617 | 98 | 66 | 1.7 | 3.5 | 0.00 | 0.00 | 0.00 | 46 | 1015.3 |
| 20260905175417 | 97 | 85 | 2.6 | 6.1 | 0.00 | 0.00 | 0.00 | 49 | 1015.3 |
| 20260905174217 | 98 | 132 | 1.7 | 5.2 | 0.00 | 0.00 | 0.00 | 48 | 1015.6 |
| 20260905173017 | 97 | 77 | 1.7 | 3.5 | 0.00 | 0.00 | 0.00 | 49 | 1015.7 |
| 20260905171817 | 96 | 271 | 0.9 | 3.5 | 0.00 | 0.00 | 0.00 | 53 | 1015.7 |
| 20260905170617 | 95 | 223 | 1.7 | 3.5 | 0.00 | 0.00 | 0.00 | 54 | 1015.8 |
| 20260905165416 | 95 | 2 | 1.7 | 4.3 | 0.00 | 0.00 | 0.00 | 53 | 1016.2 |
| 20260905164216 | 94 | 168 | 0.9 | 3.5 | 0.00 | 0.00 | 0.00 | 55 | 1016.4 |
| 20260905163017 | 94 | 212 | 1.7 | 3.5 | 0.00 | 0.00 | 0.00 | 56 | 1016.7 |
| 20260905161837 | 92 | 190 | 1.7 | 4.3 | 0.00 | 0.00 | 0.00 | 58 | 1017.0 |
| 20260905160617 | 92 | 288 | 3.5 | 6.1 | 0.00 | 0.00 | 0.00 | 58 | 1017.1 |
| 20260905155417 | 91 | 173 | 1.7 | 3.5 | 0.00 | 0.00 | 0.00 | 62 | 1017.2 |
| 20260905154216 | 91 | 315 | 2.6 | 4.3 | 0.00 | 0.00 | 0.00 | 61 | 1017.2 |
| 20260905153016 | 90 | 266 | 1.7 | 3.5 | 0.00 | 0.00 | 0.00 | 63 | 1017.3 |
| 20260905151816 | 90 | 323 | 1.7 | 6.1 | 0.00 | 0.00 | 0.00 | 67 | 1017.3 |
| 20260905150617 | 89 | 310 | 1.7 | 4.3 | 0.00 | 0.00 | 0.00 | 68 | 1017.4 |
| 20260905145416 | 88 | 293 | 1.7 | 3.5 | 0.00 | 0.00 | 0.00 | 70 | 1017.5 |
| 20260905144237 | 87 | 261 | 2.6 | 6.1 | 0.00 | 0.00 | 0.00 | 71 | 1017.6 |
| 20260905143016 | 86 | 285 | 0.9 | 3.5 | 0.00 | 0.00 | 0.00 | 73 | 1017.6 |
| 20260905141836 | 86 | 269 | 1.7 | 4.3 | 0.00 | 0.00 | 0.00 | 74 | 1017.8 |
| 20260905140616 | 85 | 323 | 0.9 | 3.5 | 0.00 | 0.00 | 0.00 | 76 | 1017.9 |
| 20260905135416 | 84 | 243 | 1.7 | 3.5 | 0.00 | 0.00 | 0.00 | 79 | 1017.9 |
| 20260905134216 | 83 | 309 | 1.7 | 3.5 | 0.00 | 0.00 | 0.00 | 81 | 1018.0 |
| 20260905133016 | 82 | 192 | 0.9 | 3.5 | 0.00 | 0.00 | 0.00 | 83 | 1017.9 |
| 20260905131816 | 80 | 184 | 0.9 | 1.7 | 0.00 | 0.00 | 0.00 | 87 | 1017.9 |
| 20260905130616 | 79 | 276 | 1.7 | 3.5 | 0.00 | 0.00 | 0.00 | 89 | 1018.0 |
| 20260905125417 | 78 | 263 | 0.9 | 2.6 | 0.00 | 0.00 | 0.00 | 91 | 1018.2 |
| 20260905124216 | 77 | 300 | 1.7 | 2.6 | 0.00 | 0.00 | 0.00 | 93 | 1018.1 |
| 20260905123016 | 76 | 204 | 0.0 | 2.6 | 0.00 | 0.00 | 0.00 | 94 | 1017.8 |
| 20260905121816 | 76 | 204 | 0.0 | 0.9 | 0.00 | 0.00 | 0.00 | 96 | 1017.7 |
| 20260905120616 | 74 | 0.0 | 0.0 | 0.00 | 0.00 | 0.00 | 97 | 1017.7 | |
| 20260905115416 | 74 | 204 | 0.0 | 0.9 | 0.00 | 0.00 | 0.00 | 96 | 1017.6 |
| 20260905114216 | 74 | 0.0 | 0.0 | 0.00 | 0.00 | 0.00 | 96 | 1017.6 | |
| 20260905113016 | 74 | 0.0 | 0.0 | 0.00 | 0.00 | 0.00 | 96 | 1017.6 | |
| 20260905111816 | 74 | 0.0 | 0.0 | 0.00 | 0.00 | 0.00 | 95 | 1017.5 | |
| 20260905110636 | 74 | 0.0 | 0.0 | 0.00 | 0.00 | 0.00 | 95 | 1017.4 | |
| 20260905105416 | 74 | 204 | 0.0 | 0.9 | 0.00 | 0.00 | 0.00 | 95 | 1017.2 |
| 20260905104216 | 74 | 0.0 | 0.0 | 0.00 | 0.00 | 0.00 | 95 | 1017.3 | |
| 20260905103016 | 74 | 0.0 | 0.0 | 0.00 | 0.00 | 0.00 | 95 | 1017.1 | |
| 20260905101816 | 75 | 0.0 | 0.0 | 0.00 | 0.00 | 0.00 | 94 | 1017.0 | |
| 20260905100616 | 75 | 204 | 0.0 | 0.9 | 0.00 | 0.00 | 0.00 | 95 | 1016.9 |
| 20260905095416 | 75 | 0.0 | 0.9 | 0.00 | 0.00 | 0.00 | 94 | 1016.9 | |
| 20260905094216 | 75 | 0.0 | 1.7 | 0.00 | 0.00 | 0.00 | 95 | 1017.0 |